Time;durP1;ratioP1;P1;durP2;ratioP2;P2;SDS_P1;SDS_P2;PMS_P1;PMS_P2;Temp;Humidity;BMP_temperature;BMP_pressure;BME280_temperature;BME280_humidity;BME280_pressure;Samples;Min_cycle;Max_cycle;Signal;HPM_P1;HPM_P2
2022/03/29 00:01:09;;;;;;;17.00;12.40;;;7.50;99.90;;;;;;5117022;28;20467;-71
2022/03/29 00:03:35;;;;;;;18.37;11.87;;;7.50;99.90;;;;;;5117474;28;20460;-72
2022/03/29 00:06:02;;;;;;;16.40;12.27;;;7.40;99.90;;;;;;5116184;28;20460;-70
2022/03/29 00:08:29;;;;;;;14.03;11.63;;;7.40;99.90;;;;;;5115701;28;20476;-70
2022/03/29 00:10:56;;;;;;;17.40;13.27;;;7.30;99.90;;;;;;5116210;28;20785;-71
2022/03/29 00:13:24;;;;;;;17.13;13.20;;;7.30;99.90;;;;;;5116119;28;20449;-70
2022/03/29 00:15:50;;;;;;;16.83;12.10;;;7.20;99.90;;;;;;5116536;28;20551;-71
2022/03/29 00:18:17;;;;;;;16.90;11.87;;;7.20;99.90;;;;;;5115928;28;20463;-71
2022/03/29 00:20:44;;;;;;;20.60;13.30;;;7.10;99.90;;;;;;5116795;28;20452;-70
2022/03/29 00:23:11;;;;;;;17.10;11.33;;;7.10;99.90;;;;;;5116119;28;20445;-70
2022/03/29 00:25:37;;;;;;;19.77;12.37;;;7.10;99.90;;;;;;5116368;28;20460;-70
2022/03/29 00:28:05;;;;;;;18.33;11.80;;;7.10;99.90;;;;;;5116080;28;20491;-71
2022/03/29 00:30:33;;;;;;;20.03;13.37;;;7.10;99.90;;;;;;5115607;28;20464;-71
2022/03/29 00:32:59;;;;;;;19.67;11.80;;;7.10;99.90;;;;;;5115938;28;20743;-71
2022/03/29 00:35:26;;;;;;;16.20;11.93;;;7.10;99.90;;;;;;5115938;28;20551;-71
2022/03/29 00:37:54;;;;;;;18.10;12.53;;;7.10;99.90;;;;;;5115639;28;20463;-72
2022/03/29 00:40:21;;;;;;;17.50;12.60;;;7.10;99.90;;;;;;5115667;28;20452;-71
2022/03/29 00:42:48;;;;;;;16.13;11.40;;;7.10;99.90;;;;;;5115674;28;20452;-70
2022/03/29 00:45:14;;;;;;;15.90;12.23;;;7.10;99.90;;;;;;5115822;28;20456;-71
2022/03/29 00:47:43;;;;;;;16.70;12.00;;;7.10;99.90;;;;;;5115932;28;20452;-71
2022/03/29 00:50:10;;;;;;;18.00;12.43;;;7.10;99.90;;;;;;5115812;28;20471;-71
2022/03/29 00:52:39;;;;;;;17.73;11.80;;;7.00;99.90;;;;;;5116067;28;20464;-71
2022/03/29 00:55:07;;;;;;;15.90;11.50;;;7.10;99.90;;;;;;5115325;28;20466;-71
2022/03/29 00:57:35;;;;;;;19.53;12.63;;;7.10;99.90;;;;;;5115531;28;20452;-70
2022/03/29 01:00:03;;;;;;;21.60;12.83;;;7.10;99.90;;;;;;5115507;28;20484;-71
2022/03/29 01:02:30;;;;;;;19.17;12.87;;;7.10;99.90;;;;;;5115592;28;20483;-71
2022/03/29 01:04:59;;;;;;;18.53;11.90;;;7.10;99.90;;;;;;5115557;28;20756;-71
2022/03/29 01:07:27;;;;;;;19.37;12.90;;;7.10;99.90;;;;;;5115258;28;20529;-71
2022/03/29 01:09:54;;;;;;;19.90;13.53;;;7.20;99.90;;;;;;5115260;28;20480;-71
2022/03/29 01:12:22;;;;;;;19.40;12.70;;;7.20;99.90;;;;;;5114957;28;20463;-71
2022/03/29 01:14:49;;;;;;;19.40;12.13;;;7.20;99.90;;;;;;5115139;28;20462;-71
2022/03/29 01:20:13;;;;;;;16.93;12.97;;;7.20;99.90;;;;;;5114524;28;20427;-71
2022/03/29 01:22:42;;;;;;;17.13;13.00;;;7.30;99.90;;;;;;5115698;28;20440;-71
2022/03/29 01:25:11;;;;;;;20.10;13.30;;;7.30;99.90;;;;;;5115065;28;20472;-71
2022/03/29 01:27:38;;;;;;;17.03;11.57;;;7.20;99.90;;;;;;5114788;28;20965;-70
2022/03/29 01:30:06;;;;;;;16.83;11.73;;;7.20;99.90;;;;;;5115160;28;20540;-71
2022/03/29 01:32:35;;;;;;;19.00;13.47;;;7.20;99.90;;;;;;5115439;28;20457;-71
2022/03/29 01:35:03;;;;;;;15.00;11.80;;;7.20;99.90;;;;;;5114899;28;20995;-71
2022/03/29 01:37:30;;;;;;;17.93;12.60;;;7.30;99.90;;;;;;5115053;28;20460;-69
2022/03/29 01:39:58;;;;;;;18.70;13.00;;;7.30;99.90;;;;;;5114864;28;20460;-71
2022/03/29 01:42:25;;;;;;;19.47;13.20;;;7.20;99.90;;;;;;5114748;28;20471;-71
2022/03/29 01:44:51;;;;;;;19.30;13.40;;;7.30;99.90;;;;;;5115025;28;20797;-70
2022/03/29 01:47:21;;;;;;;17.80;12.73;;;7.30;99.90;;;;;;5114627;28;20467;-71
2022/03/29 01:49:48;;;;;;;18.40;11.83;;;7.40;99.90;;;;;;5115184;28;20512;-70
2022/03/29 01:52:15;;;;;;;18.30;13.13;;;7.40;99.90;;;;;;5114767;28;20468;-69
2022/03/29 01:54:42;;;;;;;18.87;14.20;;;7.40;99.90;;;;;;5114764;28;20480;-71
2022/03/29 01:57:11;;;;;;;19.10;13.07;;;7.40;99.90;;;;;;5114851;28;20575;-70
2022/03/29 02:02:22;;;;;;;19.93;14.80;;;7.50;99.90;;;;;;5114722;28;20419;-71
2022/03/29 02:04:49;;;;;;;17.70;13.33;;;7.50;99.90;;;;;;5114770;28;20456;-71
2022/03/29 02:07:16;;;;;;;16.90;12.63;;;7.50;99.90;;;;;;5114599;28;20452;-70
2022/03/29 02:09:43;;;;;;;22.53;14.07;;;7.50;99.90;;;;;;5114607;28;20853;-71
2022/03/29 02:12:12;;;;;;;19.20;13.60;;;7.50;99.90;;;;;;5114747;28;20467;-71
2022/03/29 02:14:38;;;;;;;18.63;13.13;;;7.50;99.90;;;;;;5114729;28;20547;-70
2022/03/29 02:17:06;;;;;;;18.83;14.07;;;7.50;99.90;;;;;;5114628;28;20467;-71
2022/03/29 02:19:32;;;;;;;20.93;14.70;;;7.60;99.90;;;;;;5114652;28;20744;-71
2022/03/29 02:21:59;;;;;;;17.77;12.67;;;7.60;99.90;;;;;;5114143;28;20449;-71
2022/03/29 02:24:26;;;;;;;21.63;14.00;;;7.60;99.90;;;;;;5114440;28;20918;-70
2022/03/29 02:26:52;;;;;;;18.07;14.13;;;7.60;99.90;;;;;;5114639;28;20463;-71
2022/03/29 02:29:20;;;;;;;25.33;15.27;;;7.50;99.90;;;;;;5114516;28;20487;-71
2022/03/29 02:31:47;;;;;;;20.00;14.00;;;7.50;99.90;;;;;;5117330;28;20452;-70
2022/03/29 02:34:14;;;;;;;20.97;14.80;;;7.40;99.90;;;;;;5118493;28;20824;-71
2022/03/29 02:36:40;;;;;;;19.90;15.57;;;7.40;99.90;;;;;;5118384;28;20460;-72
2022/03/29 02:39:07;;;;;;;21.60;14.07;;;7.30;99.90;;;;;;5118118;28;20456;-70
2022/03/29 02:41:34;;;;;;;20.67;13.80;;;7.30;99.90;;;;;;5118114;28;20460;-71
2022/03/29 02:44:00;;;;;;;24.30;14.93;;;7.30;99.90;;;;;;5118053;28;20456;-71
2022/03/29 02:46:29;;;;;;;21.33;15.43;;;7.30;99.90;;;;;;5118085;28;20488;-70
2022/03/29 02:48:55;;;;;;;22.47;16.03;;;7.40;99.90;;;;;;5118029;28;20539;-71
2022/03/29 02:51:22;;;;;;;22.23;14.50;;;7.40;99.90;;;;;;5118794;28;20937;-71
2022/03/29 02:53:49;;;;;;;20.97;15.00;;;7.40;99.90;;;;;;5120045;28;20484;-70
2022/03/29 02:56:15;;;;;;;22.37;14.47;;;7.50;99.90;;;;;;5118243;28;20456;-70
2022/03/29 02:58:42;;;;;;;18.80;14.03;;;7.50;99.90;;;;;;5117321;28;20452;-70
2022/03/29 03:01:09;;;;;;;23.30;14.80;;;7.50;99.90;;;;;;5117584;28;20457;-69
2022/03/29 03:03:37;;;;;;;21.17;14.77;;;7.50;99.90;;;;;;5117485;28;20456;-71
2022/03/29 03:06:04;;;;;;;19.17;15.30;;;7.50;99.90;;;;;;5117708;28;20464;-71
2022/03/29 03:08:31;;;;;;;24.10;14.73;;;7.40;99.90;;;;;;5117486;28;20498;-71
2022/03/29 03:10:58;;;;;;;24.40;15.97;;;7.40;99.90;;;;;;5117250;28;20521;-69
2022/03/29 03:13:25;;;;;;;20.93;13.87;;;7.30;99.90;;;;;;5117669;28;20460;-70
2022/03/29 03:15:52;;;;;;;20.70;14.90;;;7.30;99.90;;;;;;5117424;28;20545;-70
2022/03/29 03:18:19;;;;;;;19.93;14.73;;;7.30;99.90;;;;;;5117494;28;20456;-70
2022/03/29 03:20:47;;;;;;;24.47;15.03;;;7.30;99.90;;;;;;5117339;28;20468;-71
2022/03/29 03:23:14;;;;;;;21.20;15.03;;;7.30;99.90;;;;;;5117026;28;20779;-71
2022/03/29 03:25:40;;;;;;;23.73;15.40;;;7.40;99.90;;;;;;5117348;28;20460;-70
2022/03/29 03:28:07;;;;;;;23.00;16.07;;;7.40;99.90;;;;;;5117125;28;20467;-71
2022/03/29 03:30:34;;;;;;;29.30;16.40;;;7.40;99.90;;;;;;5117073;28;20507;-70
2022/03/29 03:33:01;;;;;;;24.43;15.50;;;7.30;99.90;;;;;;5117190;28;20520;-71
2022/03/29 03:35:27;;;;;;;20.80;15.70;;;7.30;99.90;;;;;;5116972;28;20460;-70
2022/03/29 03:37:55;;;;;;;23.00;16.20;;;7.30;99.90;;;;;;5116893;28;20459;-69
2022/03/29 03:40:22;;;;;;;22.97;15.40;;;7.30;99.90;;;;;;5116377;28;20460;-70
2022/03/29 03:42:49;;;;;;;22.00;15.27;;;7.40;99.90;;;;;;5115659;28;20911;-70
2022/03/29 03:45:16;;;;;;;21.83;15.47;;;7.40;99.90;;;;;;5116768;28;20456;-70
2022/03/29 03:47:43;;;;;;;20.20;15.50;;;7.40;99.90;;;;;;5115799;28;20902;-71
2022/03/29 03:50:10;;;;;;;25.70;16.20;;;7.40;99.90;;;;;;5116701;28;20476;-70
2022/03/29 03:52:37;;;;;;;21.07;15.30;;;7.50;99.90;;;;;;5116737;28;20463;-71
2022/03/29 03:55:08;;;;;;;28.17;16.43;;;7.40;99.90;;;;;;5116623;28;20809;-70
2022/03/29 03:57:35;;;;;;;21.60;15.23;;;7.50;99.90;;;;;;5116287;28;20432;-70
2022/03/29 04:00:02;;;;;;;27.27;17.20;;;7.50;99.90;;;;;;5116475;28;20448;-70
2022/03/29 04:02:28;;;;;;;24.60;16.80;;;7.50;99.90;;;;;;5116215;28;20464;-71
2022/03/29 04:04:55;;;;;;;24.57;17.53;;;7.50;99.90;;;;;;5117084;28;20756;-70
2022/03/29 04:07:22;;;;;;;26.50;17.97;;;7.50;99.90;;;;;;5116171;28;20449;-71
2022/03/29 04:09:48;;;;;;;25.10;16.80;;;7.50;99.90;;;;;;5115928;28;20476;-70
2022/03/29 04:12:16;;;;;;;24.83;16.40;;;7.40;99.90;;;;;;5116255;28;20496;-70
2022/03/29 04:14:43;;;;;;;28.10;16.97;;;7.40;99.90;;;;;;5116144;28;20460;-69
2022/03/29 04:17:11;;;;;;;24.77;17.27;;;7.40;99.90;;;;;;5116134;28;20835;-71
2022/03/29 04:19:38;;;;;;;29.70;17.17;;;7.40;99.90;;;;;;5115923;28;20482;-70
2022/03/29 04:22:05;;;;;;;24.37;16.60;;;7.30;99.90;;;;;;5116119;28;20484;-71
2022/03/29 04:24:32;;;;;;;23.43;16.80;;;7.30;99.90;;;;;;5115920;28;20460;-70
2022/03/29 04:26:59;;;;;;;23.37;16.40;;;7.30;99.90;;;;;;5115895;28;20464;-70
2022/03/29 04:29:27;;;;;;;24.47;16.73;;;7.30;99.90;;;;;;5116137;28;20854;-70
2022/03/29 04:31:53;;;;;;;24.10;16.80;;;7.30;99.90;;;;;;5115954;28;20451;-70
2022/03/29 04:34:22;;;;;;;25.53;17.57;;;7.30;99.90;;;;;;5115885;28;20452;-70
2022/03/29 04:36:49;;;;;;;26.67;18.17;;;7.30;99.90;;;;;;5116024;28;20456;-69
2022/03/29 04:39:15;;;;;;;27.00;16.83;;;7.30;99.90;;;;;;5116684;28;20448;-70
2022/03/29 04:41:42;;;;;;;27.53;16.73;;;7.30;99.90;;;;;;5116317;28;20472;-71
2022/03/29 04:44:09;;;;;;;25.10;16.77;;;7.30;99.90;;;;;;5116173;28;20456;-70
2022/03/29 04:46:37;;;;;;;25.00;16.43;;;7.30;99.90;;;;;;5115346;28;20453;-70
2022/03/29 04:49:04;;;;;;;27.73;18.63;;;7.30;99.90;;;;;;5115602;28;20787;-71
2022/03/29 04:51:31;;;;;;;24.70;17.17;;;7.30;99.90;;;;;;5115639;28;20456;-71
2022/03/29 04:53:57;;;;;;;25.90;17.17;;;7.30;99.90;;;;;;5114354;28;20488;-70
2022/03/29 04:56:24;;;;;;;23.70;16.50;;;7.20;99.90;;;;;;5115600;28;20459;-70
2022/03/29 04:58:51;;;;;;;26.03;17.30;;;7.20;99.90;;;;;;5116152;28;20793;-71
2022/03/29 05:01:17;;;;;;;23.20;16.70;;;7.20;99.90;;;;;;5118148;28;20465;-71
2022/03/29 05:03:45;;;;;;;25.43;17.50;;;7.20;99.90;;;;;;5118081;28;20456;-70
2022/03/29 05:06:12;;;;;;;28.10;17.53;;;7.20;99.90;;;;;;5118283;28;20786;-70
2022/03/29 05:08:39;;;;;;;29.87;17.50;;;7.20;99.90;;;;;;5118387;28;20444;-71
2022/03/29 05:11:05;;;;;;;28.53;18.30;;;7.10;99.90;;;;;;5117646;28;20484;-71
2022/03/29 05:13:33;;;;;;;29.40;17.53;;;7.10;99.90;;;;;;5116111;28;20767;-71
2022/03/29 05:15:59;;;;;;;25.70;17.47;;;7.00;99.90;;;;;;5115713;28;20466;-71
2022/03/29 05:18:26;;;;;;;29.03;17.60;;;7.00;99.90;;;;;;5115369;28;20467;-71
2022/03/29 05:20:54;;;;;;;25.20;17.13;;;7.00;99.90;;;;;;5116717;28;20522;-70
2022/03/29 05:23:22;;;;;;;23.67;16.00;;;7.00;99.90;;;;;;5116223;28;20452;-71
2022/03/29 05:25:50;;;;;;;23.97;16.73;;;7.00;99.90;;;;;;5115531;28;20452;-71
2022/03/29 05:28:16;;;;;;;25.70;16.80;;;7.00;99.90;;;;;;5115651;28;20479;-70
2022/03/29 05:30:43;;;;;;;30.20;16.87;;;6.90;99.90;;;;;;5115173;28;20508;-71
2022/03/29 05:33:15;;;;;;;25.37;18.30;;;7.00;99.90;;;;;;5115498;28;20496;-71
2022/03/29 05:35:43;;;;;;;32.20;16.60;;;7.00;99.90;;;;;;5115166;28;20449;-71
2022/03/29 05:38:12;;;;;;;27.17;17.83;;;7.10;99.90;;;;;;5115128;28;20471;-71
2022/03/29 05:40:39;;;;;;;25.97;17.97;;;7.10;99.90;;;;;;5115428;28;20455;-71
2022/03/29 05:43:10;;;;;;;25.60;17.73;;;7.10;99.90;;;;;;5115512;28;20452;-71
2022/03/29 05:45:37;;;;;;;29.33;17.43;;;7.20;99.90;;;;;;5114783;28;20501;-71
2022/03/29 05:50:49;;;;;;;26.40;17.77;;;7.10;99.90;;;;;;5114550;28;20463;-70
2022/03/29 05:53:17;;;;;;;32.33;20.33;;;7.20;99.90;;;;;;5114300;28;20770;-71
2022/03/29 05:55:45;;;;;;;27.87;17.13;;;7.10;99.90;;;;;;5114540;28;20460;-71
2022/03/29 05:58:15;;;;;;;26.70;18.60;;;7.10;99.90;;;;;;5114487;28;20466;-70
2022/03/29 06:00:43;;;;;;;30.10;18.13;;;7.10;99.90;;;;;;5114829;28;20449;-70
2022/03/29 06:03:10;;;;;;;28.03;19.67;;;7.10;99.90;;;;;;5114752;28;20456;-71
2022/03/29 06:05:41;;;;;;;27.03;16.60;;;7.10;99.90;;;;;;5115783;28;20781;-71
2022/03/29 06:08:08;;;;;;;28.17;17.73;;;7.10;99.90;;;;;;5118517;28;20472;-72
2022/03/29 06:10:37;;;;;;;25.90;17.37;;;7.00;99.90;;;;;;5118071;28;20490;-71
2022/03/29 06:13:03;;;;;;;29.53;18.30;;;7.00;99.90;;;;;;5118029;28;20452;-71
2022/03/29 06:15:32;;;;;;;27.13;18.83;;;7.00;99.90;;;;;;5118403;28;20794;-70
2022/03/29 06:17:59;;;;;;;32.10;18.27;;;7.10;99.90;;;;;;5118634;28;20738;-71
2022/03/29 06:20:26;;;;;;;29.57;18.13;;;7.10;99.90;;;;;;5119165;28;20459;-70
2022/03/29 06:22:52;;;;;;;27.80;19.57;;;7.20;99.90;;;;;;5120914;28;20464;-71
2022/03/29 06:25:19;;;;;;;30.03;17.23;;;7.20;99.90;;;;;;5121731;28;20535;-70
2022/03/29 06:27:48;;;;;;;31.80;18.13;;;7.20;99.90;;;;;;5120594;28;20456;-72
2022/03/29 06:30:15;;;;;;;32.20;18.80;;;7.20;99.90;;;;;;5118631;28;20578;-71
2022/03/29 06:32:48;;;;;;;28.93;17.63;;;7.20;99.90;;;;;;5120329;28;20475;-71
2022/03/29 06:35:18;;;;;;;33.30;18.93;;;7.30;99.90;;;;;;5117775;28;20448;-71
2022/03/29 06:37:44;;;;;;;28.70;17.40;;;7.30;99.90;;;;;;5118447;28;20456;-71
2022/03/29 06:40:12;;;;;;;32.30;19.27;;;7.40;99.90;;;;;;5117913;28;20456;-71
2022/03/29 06:42:39;;;;;;;30.70;18.20;;;7.50;99.90;;;;;;5117552;28;20463;-71
2022/03/29 06:45:09;;;;;;;29.97;19.87;;;7.50;99.90;;;;;;5118215;28;20456;-71
2022/03/29 06:47:36;;;;;;;28.50;18.83;;;7.50;99.90;;;;;;5117963;28;20495;-71
2022/03/29 06:50:05;;;;;;;30.47;18.03;;;7.50;99.90;;;;;;5117702;28;20491;-70
2022/03/29 06:52:35;;;;;;;30.93;18.17;;;7.40;99.90;;;;;;5117987;28;20537;-71
2022/03/29 06:55:01;;;;;;;31.13;19.47;;;7.50;99.90;;;;;;5117468;28;20476;-70
2022/03/29 06:57:28;;;;;;;38.20;17.60;;;7.50;99.90;;;;;;5118075;28;20472;-71
2022/03/29 06:59:55;;;;;;;32.97;19.87;;;7.50;99.90;;;;;;5117263;28;20455;-70
2022/03/29 07:02:24;;;;;;;31.27;18.67;;;7.60;99.90;;;;;;5117095;28;20468;-70
2022/03/29 07:04:50;;;;;;;35.13;17.77;;;7.60;99.90;;;;;;5117422;28;20968;-71
2022/03/29 07:07:17;;;;;;;29.57;17.80;;;7.60;99.90;;;;;;5117486;28;20457;-70
2022/03/29 07:12:30;;;;;;;27.17;17.20;;;7.60;99.90;;;;;;5119353;28;20482;-71
2022/03/29 07:14:57;;;;;;;28.73;17.80;;;7.60;99.90;;;;;;5117617;28;20465;-71
2022/03/29 07:17:25;;;;;;;33.30;17.57;;;7.70;99.90;;;;;;5116048;28;20452;-70
2022/03/29 07:19:52;;;;;;;28.57;15.83;;;7.80;99.90;;;;;;5116698;28;20448;-69
2022/03/29 07:22:19;;;;;;;28.20;15.40;;;7.80;99.90;;;;;;5117592;28;20468;-70
2022/03/29 07:24:46;;;;;;;25.97;15.90;;;7.80;99.90;;;;;;5117083;28;20528;-71
2022/03/29 07:27:13;;;;;;;28.00;16.33;;;7.80;99.90;;;;;;5116952;28;20476;-71
2022/03/29 07:29:39;;;;;;;25.13;15.53;;;7.80;99.90;;;;;;5117101;28;20467;-71
2022/03/29 07:32:07;;;;;;;25.20;15.50;;;7.80;99.90;;;;;;5116743;28;20514;-71
2022/03/29 07:34:35;;;;;;;27.10;16.60;;;7.90;99.90;;;;;;5117117;28;20816;-70
2022/03/29 07:37:02;;;;;;;25.73;14.63;;;7.90;99.90;;;;;;5117643;28;20464;-70
2022/03/29 07:39:29;;;;;;;25.20;15.63;;;7.90;99.90;;;;;;5118262;28;20457;-72
2022/03/29 07:41:56;;;;;;;21.73;13.50;;;7.90;99.90;;;;;;5117774;28;20471;-71
2022/03/29 07:44:23;;;;;;;21.77;14.13;;;7.80;99.90;;;;;;5117358;28;20529;-70
2022/03/29 07:46:50;;;;;;;22.40;14.10;;;7.80;99.90;;;;;;5116684;28;20452;-71
2022/03/29 07:49:17;;;;;;;27.90;14.20;;;7.90;99.90;;;;;;5118982;28;20460;-72
2022/03/29 07:51:45;;;;;;;21.47;13.37;;;8.10;99.90;;;;;;5117368;28;20476;-71
2022/03/29 07:54:12;;;;;;;22.60;13.43;;;8.20;99.90;;;;;;5118730;28;20487;-71
2022/03/29 07:56:38;;;;;;;26.20;14.00;;;8.30;99.90;;;;;;5117680;28;20456;-71
2022/03/29 07:59:05;;;;;;;22.00;13.67;;;8.40;99.90;;;;;;5117143;28;20456;-72
2022/03/29 08:01:32;;;;;;;21.83;13.80;;;8.50;99.90;;;;;;5116191;28;20994;-70
2022/03/29 08:04:01;;;;;;;24.13;13.03;;;8.60;99.90;;;;;;5116344;28;20463;-71
2022/03/29 08:06:28;;;;;;;20.40;13.43;;;8.60;1.00;;;;;;5115764;28;20459;-71
2022/03/29 08:08:56;;;;;;;24.47;11.27;;;8.40;1.00;;;;;;5116241;28;20456;-71
2022/03/29 08:11:24;;;;;;;22.13;11.47;;;8.30;1.00;;;;;;5115869;28;20484;-70
2022/03/29 08:13:51;;;;;;;23.03;12.50;;;8.20;1.00;;;;;;5115664;28;20448;-72
2022/03/29 08:16:18;;;;;;;15.73;11.27;;;8.20;1.00;;;;;;5116417;28;20533;-71
2022/03/29 08:18:45;;;;;;;15.60;11.17;;;8.20;1.00;;;;;;5116578;28;20474;-71
2022/03/29 08:23:57;;;;;;;18.70;11.47;;;8.30;1.00;;;;;;5115552;28;20759;-70
2022/03/29 08:26:24;;;;;;;18.57;10.83;;;8.40;1.00;;;;;;5115382;28;20453;-71
2022/03/29 08:28:50;;;;;;;18.27;11.10;;;8.50;1.00;;;;;;5115761;28;20785;-70
2022/03/29 08:31:17;;;;;;;17.80;11.40;;;8.50;1.00;;;;;;5116061;28;20527;-71
2022/03/29 08:33:44;;;;;;;15.87;10.70;;;8.50;1.00;;;;;;5116806;28;20452;-70
2022/03/29 08:36:11;;;;;;;17.80;10.37;;;8.50;1.00;;;;;;5117382;28;20456;-70
2022/03/29 08:38:38;;;;;;;18.97;10.80;;;8.50;1.00;;;;;;5117201;28;20483;-70
2022/03/29 08:41:07;;;;;;;23.10;10.83;;;8.50;1.00;;;;;;5117901;28;20457;-70
2022/03/29 08:43:33;;;;;;;19.50;11.50;;;8.50;1.00;;;;;;5116840;28;20480;-71
2022/03/29 08:46:00;;;;;;;19.23;10.90;;;8.50;1.00;;;;;;5116613;28;20456;-70
2022/03/29 08:48:29;;;;;;;15.73;11.13;;;8.60;1.00;;;;;;5115434;28;20448;-70
2022/03/29 08:50:58;;;;;;;21.00;13.00;;;8.70;1.00;;;;;;5115383;28;20476;-71
2022/03/29 08:53:28;;;;;;;14.70;10.47;;;8.70;99.90;;;;;;5115505;28;20574;-70
2022/03/29 08:55:55;;;;;;;22.23;12.33;;;8.70;99.90;;;;;;5115195;28;20874;-71
2022/03/29 08:58:24;;;;;;;16.23;10.43;;;8.70;99.90;;;;;;5117329;28;20456;-71
2022/03/29 09:00:51;;;;;;;23.57;11.30;;;8.80;99.90;;;;;;5116199;28;20449;-71
2022/03/29 09:03:18;;;;;;;21.90;11.40;;;8.80;99.90;;;;;;5116678;28;20464;-70
2022/03/29 09:05:48;;;;;;;20.50;11.57;;;8.90;99.90;;;;;;5117445;28;20460;-70
2022/03/29 09:08:16;;;;;;;15.17;10.17;;;8.90;99.90;;;;;;5116677;28;20805;-71
2022/03/29 09:10:44;;;;;;;20.20;11.73;;;8.90;99.90;;;;;;5115782;28;20480;-72
2022/03/29 09:13:16;;;;;;;19.50;11.40;;;9.00;99.90;;;;;;5116335;28;20496;-71
2022/03/29 09:15:44;;;;;;;15.50;11.20;;;9.00;99.90;;;;;;5115547;28;20471;-71
2022/03/29 09:18:12;;;;;;;17.33;11.10;;;9.10;99.90;;;;;;5115792;28;20452;-69
2022/03/29 09:20:38;;;;;;;18.00;11.53;;;9.10;99.90;;;;;;5115992;28;20452;-70
2022/03/29 09:23:06;;;;;;;15.83;11.77;;;9.10;99.90;;;;;;5115803;28;20452;-71
2022/03/29 09:25:36;;;;;;;21.80;11.87;;;9.10;99.90;;;;;;5115632;28;20464;-71
2022/03/29 09:28:05;;;;;;;24.03;13.73;;;9.20;99.90;;;;;;5118700;28;20494;-72
2022/03/29 09:30:38;;;;;;;16.83;11.37;;;9.30;99.90;;;;;;5118215;28;20481;-71
2022/03/29 09:33:14;;;;;;;17.10;11.83;;;9.40;99.90;;;;;;5116134;28;20524;-70
2022/03/29 09:35:58;;;;;;;17.60;11.57;;;9.50;99.90;;;;;;5115349;28;20445;-71
2022/03/29 09:38:29;;;;;;;17.97;12.27;;;9.40;97.10;;;;;;5115296;28;20456;-72
2022/03/29 09:40:57;;;;;;;15.87;11.70;;;9.40;93.60;;;;;;5116670;28;20440;-71
2022/03/29 09:43:29;;;;;;;21.90;13.10;;;9.50;99.90;;;;;;5119731;28;20452;-71
2022/03/29 09:45:59;;;;;;;19.90;12.53;;;9.60;99.90;;;;;;5119103;28;20759;-71
2022/03/29 09:48:30;;;;;;;21.90;14.57;;;9.70;99.90;;;;;;5119239;28;20484;-70
2022/03/29 09:50:58;;;;;;;19.00;13.10;;;9.80;96.90;;;;;;5119139;28;20604;-71
2022/03/29 09:53:36;;;;;;;17.70;12.20;;;9.90;54.40;;;;;;5118430;28;21018;-72
2022/03/29 09:56:03;;;;;;;19.90;13.13;;;9.90;33.10;;;;;;5119325;28;20452;-70
2022/03/29 09:58:30;;;;;;;26.00;13.10;;;9.90;12.90;;;;;;5119003;28;20448;-71
2022/03/29 10:00:57;;;;;;;18.90;14.13;;;9.90;22.00;;;;;;5118854;28;20488;-71
2022/03/29 10:03:26;;;;;;;18.63;13.13;;;9.90;27.90;;;;;;5119044;28;20906;-70
2022/03/29 10:06:01;;;;;;;21.20;11.93;;;10.00;18.70;;;;;;5119577;28;20564;-70
2022/03/29 10:11:14;;;;;;;20.70;13.07;;;10.10;1.00;;;;;;5122417;28;20467;-71
2022/03/29 10:13:42;;;;;;;16.07;10.87;;;10.20;1.00;;;;;;5123051;28;20539;-71
2022/03/29 10:16:12;;;;;;;18.33;10.03;;;10.20;1.00;;;;;;5123443;28;20452;-71
2022/03/29 10:18:40;;;;;;;15.47;9.83;;;10.10;1.00;;;;;;5120085;28;20432;-71
2022/03/29 10:21:11;;;;;;;15.53;10.80;;;10.10;1.00;;;;;;5118513;28;20452;-70
2022/03/29 10:23:39;;;;;;;17.40;11.97;;;10.10;1.00;;;;;;5118337;28;20467;-70
2022/03/29 10:26:07;;;;;;;14.47;10.60;;;10.20;1.00;;;;;;5118374;28;20452;-71
2022/03/29 10:28:34;;;;;;;18.90;10.80;;;10.20;1.00;;;;;;5117983;28;20519;-70
2022/03/29 10:31:01;;;;;;;13.80;9.67;;;10.20;1.00;;;;;;5117929;28;20472;-71
2022/03/29 10:33:30;;;;;;;17.73;10.03;;;10.10;1.00;;;;;;5119576;28;20793;-71
2022/03/29 10:36:10;;;;;;;12.90;8.90;;;10.10;1.00;;;;;;5120093;28;20517;-71
2022/03/29 10:38:57;;;;;;;15.70;9.40;;;10.20;1.00;;;;;;5120020;28;20437;-70
2022/03/29 10:41:50;;;;;;;18.03;10.17;;;10.30;1.00;;;;;;5118741;28;20448;-72
2022/03/29 10:44:17;;;;;;;13.73;9.10;;;10.20;1.00;;;;;;5118545;28;20539;-71
2022/03/29 10:46:46;;;;;;;15.03;9.17;;;10.30;1.00;;;;;;5117808;28;20456;-71
2022/03/29 10:49:17;;;;;;;12.13;9.50;;;10.40;1.00;;;;;;5117560;28;20452;-71
2022/03/29 10:51:45;;;;;;;13.90;9.97;;;10.60;1.00;;;;;;5118093;28;20557;-70
2022/03/29 10:54:27;;;;;;;13.00;9.90;;;10.70;1.00;;;;;;5117395;28;20491;-72
2022/03/29 10:56:58;;;;;;;13.13;9.87;;;10.70;1.00;;;;;;5117958;28;20460;-72
2022/03/29 10:59:25;;;;;;;16.37;11.37;;;10.70;1.00;;;;;;5117585;28;20508;-74
2022/03/29 11:02:14;;;;;;;15.00;9.47;;;10.80;1.00;;;;;;5117504;28;20455;-72
2022/03/29 11:05:03;;;;;;;15.40;11.00;;;10.90;1.00;;;;;;5117934;28;20441;-71
2022/03/29 11:07:31;;;;;;;21.67;10.43;;;11.10;1.00;;;;;;5117937;28;20501;-71
2022/03/29 11:10:10;;;;;;;13.50;10.50;;;11.10;1.00;;;;;;5117031;28;20926;-69
2022/03/29 11:12:46;;;;;;;17.10;10.30;;;11.30;1.00;;;;;;5116628;28;20472;-70
2022/03/29 11:15:46;;;;;;;13.63;9.80;;;11.30;1.00;;;;;;5116797;28;21000;-70
2022/03/29 11:18:38;;;;;;;12.87;8.90;;;11.40;1.00;;;;;;5117157;28;20441;-73
2022/03/29 11:21:07;;;;;;;9.40;7.20;;;11.40;1.00;;;;;;5118572;28;20433;-70
2022/03/29 11:23:37;;;;;;;16.43;10.60;;;11.30;1.00;;;;;;5116936;28;20847;-70
2022/03/29 11:26:18;;;;;;;10.50;5.67;;;11.30;1.00;;;;;;5117049;28;20460;-71
2022/03/29 11:28:50;;;;;;;14.53;5.90;;;11.50;1.00;;;;;;5116953;28;20535;-70
2022/03/29 11:31:17;;;;;;;10.27;5.90;;;11.60;1.00;;;;;;5116529;28;20789;-73
2022/03/29 11:33:49;;;;;;;9.87;6.40;;;11.90;1.00;;;;;;5117112;28;20479;-70
2022/03/29 11:36:17;;;;;;;11.83;6.80;;;12.40;1.00;;;;;;5117675;28;20436;-71
2022/03/29 11:38:45;;;;;;;9.03;4.90;;;12.80;1.00;;;;;;5118829;28;20456;-70
2022/03/29 11:41:21;;;;;;;13.47;4.80;;;13.10;1.00;;;;;;5116744;28;20817;-71
2022/03/29 11:43:52;;;;;;;10.00;3.83;;;13.40;1.00;;;;;;5117229;28;20717;-70
2022/03/29 11:46:19;;;;;;;5.83;3.57;;;13.60;1.00;;;;;;5116654;28;20451;-71
2022/03/29 11:48:51;;;;;;;9.63;3.23;;;13.60;1.00;;;;;;5116263;28;20927;-71
2022/03/29 11:51:18;;;;;;;6.70;3.80;;;13.60;1.00;;;;;;5116200;28;20511;-71
2022/03/29 11:53:57;;;;;;;6.77;4.17;;;13.50;1.00;;;;;;5115688;28;20488;-71
2022/03/29 11:56:24;;;;;;;6.80;4.23;;;13.60;1.00;;;;;;5116536;28;20440;-71
2022/03/29 11:58:52;;;;;;;7.20;3.50;;;13.80;1.00;;;;;;5116098;28;20530;-70
2022/03/29 12:01:21;;;;;;;8.30;3.50;;;13.90;1.00;;;;;;5115988;28;20452;-71
2022/03/29 12:03:49;;;;;;;4.77;3.33;;;13.90;1.00;;;;;;5115310;28;20452;-70
2022/03/29 12:06:18;;;;;;;7.97;3.70;;;14.10;1.00;;;;;;5116440;28;20452;-70
2022/03/29 12:08:48;;;;;;;6.87;3.07;;;14.60;1.00;;;;;;5115806;28;20878;-71
2022/03/29 12:11:16;;;;;;;3.90;2.80;;;15.10;1.00;;;;;;5115804;28;20468;-70
2022/03/29 12:13:45;;;;;;;5.17;2.70;;;15.80;1.00;;;;;;5116141;28;20577;-71
2022/03/29 12:16:24;;;;;;;6.03;2.90;;;16.20;1.00;;;;;;5115764;28;20492;-69
2022/03/29 12:18:55;;;;;;;5.33;2.90;;;16.60;1.00;;;;;;5115650;28;20742;-71
2022/03/29 12:21:24;;;;;;;5.33;2.97;;;16.80;1.00;;;;;;5116263;28;20517;-70
2022/03/29 12:24:00;;;;;;;4.90;3.17;;;17.20;1.00;;;;;;5115819;28;20472;-70
2022/03/29 12:26:29;;;;;;;6.90;2.90;;;17.30;1.00;;;;;;5115488;28;20831;-70
2022/03/29 12:28:55;;;;;;;8.70;2.90;;;17.90;1.00;;;;;;5115359;28;20509;-70
2022/03/29 12:31:24;;;;;;;5.47;2.70;;;18.40;1.00;;;;;;5115557;28;20468;-70
2022/03/29 12:33:52;;;;;;;5.77;2.50;;;18.20;1.00;;;;;;5115169;28;20879;-71
2022/03/29 12:36:19;;;;;;;8.10;2.60;;;18.20;1.00;;;;;;5115853;28;20535;-71
2022/03/29 12:38:48;;;;;;;4.70;2.23;;;18.20;1.00;;;;;;5115183;28;20765;-71
2022/03/29 12:41:32;;;;;;;5.30;2.57;;;18.20;1.00;;;;;;5115444;28;20494;-71
2022/03/29 12:43:59;;;;;;;4.70;2.20;;;18.00;1.00;;;;;;5115091;28;20480;-70
2022/03/29 12:46:26;;;;;;;7.40;2.97;;;18.10;1.00;;;;;;5114942;28;20774;-71
2022/03/29 12:48:54;;;;;;;8.07;2.43;;;18.00;1.00;;;;;;5114941;28;20505;-69
2022/03/29 12:51:27;;;;;;;7.93;3.17;;;17.70;1.00;;;;;;5115008;28;20562;-70
2022/03/29 12:53:58;;;;;;;3.90;2.10;;;17.10;1.00;;;;;;5119788;28;20511;-71
2022/03/29 12:56:31;;;;;;;9.57;2.83;;;17.10;1.00;;;;;;5120656;28;20456;-71
2022/03/29 12:58:58;;;;;;;4.03;2.20;;;16.90;1.00;;;;;;5115902;28;20456;-72
2022/03/29 13:01:30;;;;;;;4.23;2.53;;;17.10;1.00;;;;;;5115176;28;20460;-71
2022/03/29 13:04:07;;;;;;;9.10;2.67;;;17.40;1.00;;;;;;5114939;28;20993;-71